sensor_id;sensor_type;location;lat;lon;timestamp;P1;durP1;ratioP1;P2;durP2;ratioP2
32964;SDS011;19317;48.226;11.686;2023-05-10T00:01:29;2.00;;;1.90;;
32964;SDS011;19317;48.226;11.686;2023-05-10T00:06:19;2.77;;;1.97;;
32964;SDS011;19317;48.226;11.686;2023-05-10T00:11:09;2.93;;;1.90;;
32964;SDS011;19317;48.226;11.686;2023-05-10T00:16:00;2.47;;;2.03;;
32964;SDS011;19317;48.226;11.686;2023-05-10T00:20:50;2.73;;;2.10;;
32964;SDS011;19317;48.226;11.686;2023-05-10T00:25:41;2.10;;;1.90;;
32964;SDS011;19317;48.226;11.686;2023-05-10T00:30:31;2.00;;;1.90;;
32964;SDS011;19317;48.226;11.686;2023-05-10T00:35:22;2.40;;;2.10;;
32964;SDS011;19317;48.226;11.686;2023-05-10T00:40:12;5.40;;;2.10;;
32964;SDS011;19317;48.226;11.686;2023-05-10T00:45:03;2.10;;;1.90;;
32964;SDS011;19317;48.226;11.686;2023-05-10T00:49:54;2.23;;;2.00;;
32964;SDS011;19317;48.226;11.686;2023-05-10T00:54:45;2.00;;;1.87;;
32964;SDS011;19317;48.226;11.686;2023-05-10T00:59:36;3.57;;;2.00;;
32964;SDS011;19317;48.226;11.686;2023-05-10T01:04:27;1.97;;;1.87;;
32964;SDS011;19317;48.226;11.686;2023-05-10T01:09:17;1.87;;;1.60;;
32964;SDS011;19317;48.226;11.686;2023-05-10T01:14:08;1.70;;;1.60;;
32964;SDS011;19317;48.226;11.686;2023-05-10T01:18:59;1.90;;;1.80;;
32964;SDS011;19317;48.226;11.686;2023-05-10T01:29:06;2.07;;;1.70;;
32964;SDS011;19317;48.226;11.686;2023-05-10T01:34:13;1.70;;;1.60;;
32964;SDS011;19317;48.226;11.686;2023-05-10T01:49:43;1.63;;;1.53;;
32964;SDS011;19317;48.226;11.686;2023-05-10T01:54:41;3.37;;;1.60;;
32964;SDS011;19317;48.226;11.686;2023-05-10T01:59:35;1.50;;;1.40;;
32964;SDS011;19317;48.226;11.686;2023-05-10T02:04:28;1.80;;;1.70;;
32964;SDS011;19317;48.226;11.686;2023-05-10T02:09:19;1.97;;;1.80;;
32964;SDS011;19317;48.226;11.686;2023-05-10T02:14:11;2.67;;;2.30;;
32964;SDS011;19317;48.226;11.686;2023-05-10T02:19:02;3.10;;;2.10;;
32964;SDS011;19317;48.226;11.686;2023-05-10T02:23:53;1.70;;;1.60;;
32964;SDS011;19317;48.226;11.686;2023-05-10T02:28:45;2.13;;;1.50;;
32964;SDS011;19317;48.226;11.686;2023-05-10T02:33:37;1.80;;;1.70;;
32964;SDS011;19317;48.226;11.686;2023-05-10T02:38:29;1.83;;;1.50;;
32964;SDS011;19317;48.226;11.686;2023-05-10T02:43:22;2.60;;;1.50;;
32964;SDS011;19317;48.226;11.686;2023-05-10T02:48:13;1.60;;;1.50;;
32964;SDS011;19317;48.226;11.686;2023-05-10T02:53:06;2.60;;;1.40;;
32964;SDS011;19317;48.226;11.686;2023-05-10T02:58:05;1.70;;;1.60;;
32964;SDS011;19317;48.226;11.686;2023-05-10T03:02:56;1.50;;;1.40;;
32964;SDS011;19317;48.226;11.686;2023-05-10T03:07:46;1.60;;;1.50;;
32964;SDS011;19317;48.226;11.686;2023-05-10T03:17:54;1.70;;;1.60;;
32964;SDS011;19317;48.226;11.686;2023-05-10T03:22:47;1.60;;;1.50;;
32964;SDS011;19317;48.226;11.686;2023-05-10T03:27:41;1.60;;;1.50;;
32964;SDS011;19317;48.226;11.686;2023-05-10T03:32:33;2.20;;;1.80;;
32964;SDS011;19317;48.226;11.686;2023-05-10T03:37:23;2.00;;;1.80;;
32964;SDS011;19317;48.226;11.686;2023-05-10T03:42:14;1.60;;;1.50;;
32964;SDS011;19317;48.226;11.686;2023-05-10T03:47:04;1.87;;;1.70;;
32964;SDS011;19317;48.226;11.686;2023-05-10T03:51:55;1.93;;;1.60;;
32964;SDS011;19317;48.226;11.686;2023-05-10T03:56:45;1.70;;;1.60;;
32964;SDS011;19317;48.226;11.686;2023-05-10T04:01:36;2.63;;;1.60;;
32964;SDS011;19317;48.226;11.686;2023-05-10T04:06:26;1.70;;;1.60;;
32964;SDS011;19317;48.226;11.686;2023-05-10T04:11:17;1.93;;;1.60;;
32964;SDS011;19317;48.226;11.686;2023-05-10T04:16:07;1.60;;;1.50;;
32964;SDS011;19317;48.226;11.686;2023-05-10T04:20:57;1.60;;;1.50;;
32964;SDS011;19317;48.226;11.686;2023-05-10T04:25:48;1.77;;;1.67;;
32964;SDS011;19317;48.226;11.686;2023-05-10T04:30:39;2.50;;;1.83;;
32964;SDS011;19317;48.226;11.686;2023-05-10T04:35:29;1.80;;;1.70;;
32964;SDS011;19317;48.226;11.686;2023-05-10T04:40:20;1.87;;;1.60;;
32964;SDS011;19317;48.226;11.686;2023-05-10T04:45:10;1.67;;;1.57;;
32964;SDS011;19317;48.226;11.686;2023-05-10T04:50:01;1.83;;;1.73;;
32964;SDS011;19317;48.226;11.686;2023-05-10T04:54:51;1.60;;;1.50;;
32964;SDS011;19317;48.226;11.686;2023-05-10T04:59:42;1.87;;;1.60;;
32964;SDS011;19317;48.226;11.686;2023-05-10T05:04:32;2.10;;;1.90;;
32964;SDS011;19317;48.226;11.686;2023-05-10T05:09:23;1.77;;;1.67;;
32964;SDS011;19317;48.226;11.686;2023-05-10T05:14:13;2.00;;;1.80;;
32964;SDS011;19317;48.226;11.686;2023-05-10T05:19:03;1.60;;;1.50;;
32964;SDS011;19317;48.226;11.686;2023-05-10T05:23:54;1.53;;;1.43;;
32964;SDS011;19317;48.226;11.686;2023-05-10T05:28:44;1.50;;;1.40;;
32964;SDS011;19317;48.226;11.686;2023-05-10T05:33:35;2.20;;;1.40;;
32964;SDS011;19317;48.226;11.686;2023-05-10T05:38:26;1.57;;;1.30;;
32964;SDS011;19317;48.226;11.686;2023-05-10T05:43:16;1.60;;;1.50;;
32964;SDS011;19317;48.226;11.686;2023-05-10T05:48:08;2.20;;;1.60;;
32964;SDS011;19317;48.226;11.686;2023-05-10T05:52:58;1.60;;;1.50;;
32964;SDS011;19317;48.226;11.686;2023-05-10T05:57:48;1.43;;;1.33;;
32964;SDS011;19317;48.226;11.686;2023-05-10T06:02:39;1.50;;;1.40;;
32964;SDS011;19317;48.226;11.686;2023-05-10T06:07:29;1.80;;;1.70;;
32964;SDS011;19317;48.226;11.686;2023-05-10T06:12:20;1.90;;;1.67;;
32964;SDS011;19317;48.226;11.686;2023-05-10T06:17:10;1.70;;;1.60;;
32964;SDS011;19317;48.226;11.686;2023-05-10T06:22:01;1.77;;;1.67;;
32964;SDS011;19317;48.226;11.686;2023-05-10T06:26:51;3.27;;;1.87;;
32964;SDS011;19317;48.226;11.686;2023-05-10T06:31:41;3.70;;;2.00;;
32964;SDS011;19317;48.226;11.686;2023-05-10T06:36:32;2.10;;;2.00;;
32964;SDS011;19317;48.226;11.686;2023-05-10T06:41:22;2.73;;;1.97;;
32964;SDS011;19317;48.226;11.686;2023-05-10T06:46:13;2.50;;;2.30;;
32964;SDS011;19317;48.226;11.686;2023-05-10T06:51:03;2.20;;;2.10;;
32964;SDS011;19317;48.226;11.686;2023-05-10T06:55:54;2.13;;;2.03;;
32964;SDS011;19317;48.226;11.686;2023-05-10T07:00:44;2.00;;;1.90;;
32964;SDS011;19317;48.226;11.686;2023-05-10T07:05:34;2.20;;;2.07;;
32964;SDS011;19317;48.226;11.686;2023-05-10T07:10:25;2.43;;;2.30;;
32964;SDS011;19317;48.226;11.686;2023-05-10T07:15:15;6.37;;;2.10;;
32964;SDS011;19317;48.226;11.686;2023-05-10T07:20:06;2.70;;;2.13;;
32964;SDS011;19317;48.226;11.686;2023-05-10T07:24:57;1.90;;;1.80;;
32964;SDS011;19317;48.226;11.686;2023-05-10T07:29:47;2.10;;;2.00;;
32964;SDS011;19317;48.226;11.686;2023-05-10T07:34:38;2.03;;;1.90;;
32964;SDS011;19317;48.226;11.686;2023-05-10T07:39:28;3.40;;;1.97;;
32964;SDS011;19317;48.226;11.686;2023-05-10T07:44:19;2.00;;;1.80;;
32964;SDS011;19317;48.226;11.686;2023-05-10T07:49:09;2.43;;;1.90;;
32964;SDS011;19317;48.226;11.686;2023-05-10T07:54:00;2.10;;;1.90;;
32964;SDS011;19317;48.226;11.686;2023-05-10T07:58:50;1.90;;;1.80;;
32964;SDS011;19317;48.226;11.686;2023-05-10T08:03:41;2.20;;;2.00;;
32964;SDS011;19317;48.226;11.686;2023-05-10T08:08:31;2.20;;;2.00;;
32964;SDS011;19317;48.226;11.686;2023-05-10T08:13:22;1.70;;;1.60;;
32964;SDS011;19317;48.226;11.686;2023-05-10T08:18:12;1.83;;;1.73;;
32964;SDS011;19317;48.226;11.686;2023-05-10T08:23:03;1.67;;;1.57;;
32964;SDS011;19317;48.226;11.686;2023-05-10T08:27:53;2.70;;;2.20;;
32964;SDS011;19317;48.226;11.686;2023-05-10T08:32:44;3.03;;;1.90;;
32964;SDS011;19317;48.226;11.686;2023-05-10T08:37:34;1.80;;;1.70;;
32964;SDS011;19317;48.226;11.686;2023-05-10T08:42:25;3.00;;;1.80;;
32964;SDS011;19317;48.226;11.686;2023-05-10T08:47:20;1.97;;;1.77;;
32964;SDS011;19317;48.226;11.686;2023-05-10T08:52:11;3.00;;;1.90;;
32964;SDS011;19317;48.226;11.686;2023-05-10T08:57:04;5.00;;;1.77;;
32964;SDS011;19317;48.226;11.686;2023-05-10T09:01:57;4.57;;;1.80;;
32964;SDS011;19317;48.226;11.686;2023-05-10T09:06:48;1.80;;;1.70;;
32964;SDS011;19317;48.226;11.686;2023-05-10T09:11:38;3.20;;;1.80;;
32964;SDS011;19317;48.226;11.686;2023-05-10T09:16:29;1.90;;;1.80;;
32964;SDS011;19317;48.226;11.686;2023-05-10T09:21:19;2.53;;;1.60;;
32964;SDS011;19317;48.226;11.686;2023-05-10T09:26:10;2.20;;;2.00;;
32964;SDS011;19317;48.226;11.686;2023-05-10T09:31:00;4.50;;;1.90;;
32964;SDS011;19317;48.226;11.686;2023-05-10T09:35:51;2.07;;;1.70;;
32964;SDS011;19317;48.226;11.686;2023-05-10T09:40:42;1.70;;;1.60;;
32964;SDS011;19317;48.226;11.686;2023-05-10T09:45:41;1.80;;;1.70;;
32964;SDS011;19317;48.226;11.686;2023-05-10T09:50:32;2.70;;;1.80;;
32964;SDS011;19317;48.226;11.686;2023-05-10T09:55:23;1.87;;;1.77;;
32964;SDS011;19317;48.226;11.686;2023-05-10T10:00:18;2.10;;;2.00;;
32964;SDS011;19317;48.226;11.686;2023-05-10T10:05:09;2.03;;;1.80;;
32964;SDS011;19317;48.226;11.686;2023-05-10T10:10:01;2.10;;;1.90;;
32964;SDS011;19317;48.226;11.686;2023-05-10T10:14:52;3.93;;;2.00;;
32964;SDS011;19317;48.226;11.686;2023-05-10T10:19:43;2.87;;;1.97;;
32964;SDS011;19317;48.226;11.686;2023-05-10T10:24:35;2.70;;;2.30;;
32964;SDS011;19317;48.226;11.686;2023-05-10T10:29:26;2.40;;;2.20;;
32964;SDS011;19317;48.226;11.686;2023-05-10T10:34:31;2.40;;;2.20;;
32964;SDS011;19317;48.226;11.686;2023-05-10T10:39:22;3.10;;;2.20;;
32964;SDS011;19317;48.226;11.686;2023-05-10T10:49:14;2.10;;;1.93;;
32964;SDS011;19317;48.226;11.686;2023-05-10T10:54:08;2.10;;;2.00;;
32964;SDS011;19317;48.226;11.686;2023-05-10T10:58:59;4.10;;;2.33;;
32964;SDS011;19317;48.226;11.686;2023-05-10T11:08:49;2.63;;;2.43;;
32964;SDS011;19317;48.226;11.686;2023-05-10T11:13:42;2.63;;;2.17;;
32964;SDS011;19317;48.226;11.686;2023-05-10T11:18:34;4.40;;;2.30;;
32964;SDS011;19317;48.226;11.686;2023-05-10T11:28:43;2.60;;;2.40;;
32964;SDS011;19317;48.226;11.686;2023-05-10T11:33:44;2.70;;;2.10;;
32964;SDS011;19317;48.226;11.686;2023-05-10T11:38:36;3.03;;;2.50;;
32964;SDS011;19317;48.226;11.686;2023-05-10T11:43:26;4.40;;;2.70;;
32964;SDS011;19317;48.226;11.686;2023-05-10T11:48:17;3.20;;;2.20;;
32964;SDS011;19317;48.226;11.686;2023-05-10T11:53:07;5.17;;;2.40;;
32964;SDS011;19317;48.226;11.686;2023-05-10T11:57:59;3.53;;;2.17;;
32964;SDS011;19317;48.226;11.686;2023-05-10T12:02:51;3.53;;;2.43;;
32964;SDS011;19317;48.226;11.686;2023-05-10T12:07:41;2.30;;;2.20;;
32964;SDS011;19317;48.226;11.686;2023-05-10T12:12:38;2.20;;;2.00;;
32964;SDS011;19317;48.226;11.686;2023-05-10T12:17:30;3.27;;;2.43;;
32964;SDS011;19317;48.226;11.686;2023-05-10T12:22:21;3.80;;;2.10;;
32964;SDS011;19317;48.226;11.686;2023-05-10T12:27:11;3.57;;;2.80;;
32964;SDS011;19317;48.226;11.686;2023-05-10T12:32:01;3.10;;;2.43;;
32964;SDS011;19317;48.226;11.686;2023-05-10T12:36:53;2.70;;;2.40;;
32964;SDS011;19317;48.226;11.686;2023-05-10T12:41:43;2.30;;;2.10;;
32964;SDS011;19317;48.226;11.686;2023-05-10T12:46:34;2.00;;;1.90;;
32964;SDS011;19317;48.226;11.686;2023-05-10T12:51:24;2.13;;;1.50;;
32964;SDS011;19317;48.226;11.686;2023-05-10T12:56:15;1.70;;;1.60;;
32964;SDS011;19317;48.226;11.686;2023-05-10T13:01:05;3.53;;;1.83;;
32964;SDS011;19317;48.226;11.686;2023-05-10T13:05:56;1.80;;;1.50;;
32964;SDS011;19317;48.226;11.686;2023-05-10T13:10:46;1.50;;;1.40;;
32964;SDS011;19317;48.226;11.686;2023-05-10T13:15:37;1.83;;;1.60;;
32964;SDS011;19317;48.226;11.686;2023-05-10T13:20:27;1.87;;;1.77;;
32964;SDS011;19317;48.226;11.686;2023-05-10T13:25:18;3.00;;;1.90;;
32964;SDS011;19317;48.226;11.686;2023-05-10T13:30:09;2.00;;;1.90;;
32964;SDS011;19317;48.226;11.686;2023-05-10T13:35:00;2.40;;;1.80;;
32964;SDS011;19317;48.226;11.686;2023-05-10T13:39:50;2.23;;;1.67;;
32964;SDS011;19317;48.226;11.686;2023-05-10T13:44:41;2.80;;;2.00;;
32964;SDS011;19317;48.226;11.686;2023-05-10T13:49:31;2.10;;;1.87;;
32964;SDS011;19317;48.226;11.686;2023-05-10T13:54:23;1.90;;;1.80;;
32964;SDS011;19317;48.226;11.686;2023-05-10T13:59:14;2.67;;;2.23;;
32964;SDS011;19317;48.226;11.686;2023-05-10T14:04:04;2.03;;;1.90;;
32964;SDS011;19317;48.226;11.686;2023-05-10T14:08:55;1.80;;;1.70;;
32964;SDS011;19317;48.226;11.686;2023-05-10T14:13:45;2.40;;;2.20;;
32964;SDS011;19317;48.226;11.686;2023-05-10T14:18:36;2.00;;;1.80;;
32964;SDS011;19317;48.226;11.686;2023-05-10T14:23:26;2.20;;;2.00;;
32964;SDS011;19317;48.226;11.686;2023-05-10T14:28:16;2.97;;;2.30;;
32964;SDS011;19317;48.226;11.686;2023-05-10T14:33:07;2.40;;;2.20;;
32964;SDS011;19317;48.226;11.686;2023-05-10T14:37:58;3.03;;;2.80;;
32964;SDS011;19317;48.226;11.686;2023-05-10T14:42:48;2.57;;;2.30;;
32964;SDS011;19317;48.226;11.686;2023-05-10T14:47:39;2.93;;;2.27;;
32964;SDS011;19317;48.226;11.686;2023-05-10T14:52:30;3.43;;;2.70;;
32964;SDS011;19317;48.226;11.686;2023-05-10T14:57:20;2.57;;;2.20;;
32964;SDS011;19317;48.226;11.686;2023-05-10T15:02:10;2.97;;;2.30;;
32964;SDS011;19317;48.226;11.686;2023-05-10T15:07:01;2.20;;;2.00;;
32964;SDS011;19317;48.226;11.686;2023-05-10T15:11:51;2.03;;;1.90;;
32964;SDS011;19317;48.226;11.686;2023-05-10T15:16:42;1.93;;;1.80;;
32964;SDS011;19317;48.226;11.686;2023-05-10T15:21:32;2.10;;;1.90;;
32964;SDS011;19317;48.226;11.686;2023-05-10T15:26:23;2.30;;;2.10;;
32964;SDS011;19317;48.226;11.686;2023-05-10T15:31:13;2.00;;;1.80;;
32964;SDS011;19317;48.226;11.686;2023-05-10T15:36:04;2.67;;;1.93;;
32964;SDS011;19317;48.226;11.686;2023-05-10T15:40:56;2.10;;;2.00;;
32964;SDS011;19317;48.226;11.686;2023-05-10T15:45:46;2.53;;;1.90;;
32964;SDS011;19317;48.226;11.686;2023-05-10T15:50:37;2.47;;;2.20;;
32964;SDS011;19317;48.226;11.686;2023-05-10T15:55:27;2.20;;;2.10;;
32964;SDS011;19317;48.226;11.686;2023-05-10T16:00:18;2.30;;;2.10;;
32964;SDS011;19317;48.226;11.686;2023-05-10T16:05:08;2.97;;;2.10;;
32964;SDS011;19317;48.226;11.686;2023-05-10T16:09:59;2.00;;;1.90;;
32964;SDS011;19317;48.226;11.686;2023-05-10T16:14:49;2.00;;;1.90;;
32964;SDS011;19317;48.226;11.686;2023-05-10T16:19:40;1.90;;;1.80;;
32964;SDS011;19317;48.226;11.686;2023-05-10T16:24:30;4.13;;;1.80;;
32964;SDS011;19317;48.226;11.686;2023-05-10T16:29:21;2.20;;;2.00;;
32964;SDS011;19317;48.226;11.686;2023-05-10T16:34:11;2.00;;;1.80;;
32964;SDS011;19317;48.226;11.686;2023-05-10T16:39:02;2.53;;;2.00;;
32964;SDS011;19317;48.226;11.686;2023-05-10T16:43:53;3.80;;;2.20;;
32964;SDS011;19317;48.226;11.686;2023-05-10T16:48:43;2.77;;;2.10;;
32964;SDS011;19317;48.226;11.686;2023-05-10T16:53:34;1.73;;;1.63;;
32964;SDS011;19317;48.226;11.686;2023-05-10T16:58:25;1.93;;;1.83;;
32964;SDS011;19317;48.226;11.686;2023-05-10T17:03:15;2.20;;;2.10;;
32964;SDS011;19317;48.226;11.686;2023-05-10T17:08:06;2.17;;;2.03;;
32964;SDS011;19317;48.226;11.686;2023-05-10T17:12:56;2.27;;;2.07;;
32964;SDS011;19317;48.226;11.686;2023-05-10T17:17:47;3.23;;;2.10;;
32964;SDS011;19317;48.226;11.686;2023-05-10T17:22:37;3.73;;;2.30;;
32964;SDS011;19317;48.226;11.686;2023-05-10T17:27:28;2.87;;;2.40;;
32964;SDS011;19317;48.226;11.686;2023-05-10T17:32:18;2.70;;;2.27;;
32964;SDS011;19317;48.226;11.686;2023-05-10T17:42:37;2.77;;;2.03;;
32964;SDS011;19317;48.226;11.686;2023-05-10T17:47:27;2.17;;;1.70;;
32964;SDS011;19317;48.226;11.686;2023-05-10T17:52:18;3.03;;;2.00;;
32964;SDS011;19317;48.226;11.686;2023-05-10T17:57:08;2.07;;;1.90;;
32964;SDS011;19317;48.226;11.686;2023-05-10T18:02:00;3.90;;;1.73;;
32964;SDS011;19317;48.226;11.686;2023-05-10T18:06:51;2.20;;;2.03;;
32964;SDS011;19317;48.226;11.686;2023-05-10T18:11:41;2.37;;;2.13;;
32964;SDS011;19317;48.226;11.686;2023-05-10T18:16:32;2.77;;;2.50;;
32964;SDS011;19317;48.226;11.686;2023-05-10T18:21:22;2.20;;;2.00;;
32964;SDS011;19317;48.226;11.686;2023-05-10T18:26:13;4.23;;;2.60;;
32964;SDS011;19317;48.226;11.686;2023-05-10T18:31:03;3.87;;;2.20;;
32964;SDS011;19317;48.226;11.686;2023-05-10T18:35:54;2.60;;;2.20;;
32964;SDS011;19317;48.226;11.686;2023-05-10T18:40:44;2.20;;;2.00;;
32964;SDS011;19317;48.226;11.686;2023-05-10T18:45:35;3.10;;;2.20;;
32964;SDS011;19317;48.226;11.686;2023-05-10T18:50:25;2.63;;;2.30;;
32964;SDS011;19317;48.226;11.686;2023-05-10T18:55:16;2.73;;;2.53;;
32964;SDS011;19317;48.226;11.686;2023-05-10T19:00:07;2.83;;;2.50;;
32964;SDS011;19317;48.226;11.686;2023-05-10T19:04:59;2.57;;;2.37;;
32964;SDS011;19317;48.226;11.686;2023-05-10T19:09:49;2.50;;;2.30;;
32964;SDS011;19317;48.226;11.686;2023-05-10T19:14:39;4.77;;;2.30;;
32964;SDS011;19317;48.226;11.686;2023-05-10T19:19:30;3.10;;;2.40;;
32964;SDS011;19317;48.226;11.686;2023-05-10T19:24:20;2.80;;;2.30;;
32964;SDS011;19317;48.226;11.686;2023-05-10T19:29:11;3.80;;;2.60;;
32964;SDS011;19317;48.226;11.686;2023-05-10T19:34:01;2.93;;;2.53;;
32964;SDS011;19317;48.226;11.686;2023-05-10T19:38:52;3.70;;;2.70;;
32964;SDS011;19317;48.226;11.686;2023-05-10T19:43:42;3.57;;;3.27;;
32964;SDS011;19317;48.226;11.686;2023-05-10T19:48:32;4.20;;;2.63;;
32964;SDS011;19317;48.226;11.686;2023-05-10T19:53:23;3.50;;;3.10;;
32964;SDS011;19317;48.226;11.686;2023-05-10T19:58:13;2.83;;;2.33;;
32964;SDS011;19317;48.226;11.686;2023-05-10T20:03:04;2.80;;;2.20;;
32964;SDS011;19317;48.226;11.686;2023-05-10T20:07:54;2.63;;;2.40;;
32964;SDS011;19317;48.226;11.686;2023-05-10T20:12:45;2.30;;;2.10;;
32964;SDS011;19317;48.226;11.686;2023-05-10T20:17:37;3.67;;;2.37;;
32964;SDS011;19317;48.226;11.686;2023-05-10T20:22:27;3.47;;;2.57;;
32964;SDS011;19317;48.226;11.686;2023-05-10T20:27:18;4.10;;;2.60;;
32964;SDS011;19317;48.226;11.686;2023-05-10T20:32:08;3.23;;;2.40;;
32964;SDS011;19317;48.226;11.686;2023-05-10T20:36:59;2.77;;;2.57;;
32964;SDS011;19317;48.226;11.686;2023-05-10T20:41:49;3.93;;;2.40;;
32964;SDS011;19317;48.226;11.686;2023-05-10T20:46:40;2.23;;;2.10;;
32964;SDS011;19317;48.226;11.686;2023-05-10T20:51:30;3.90;;;2.60;;
32964;SDS011;19317;48.226;11.686;2023-05-10T20:56:21;3.30;;;3.00;;
32964;SDS011;19317;48.226;11.686;2023-05-10T21:01:11;2.50;;;2.30;;
32964;SDS011;19317;48.226;11.686;2023-05-10T21:06:02;4.23;;;2.37;;
32964;SDS011;19317;48.226;11.686;2023-05-10T21:10:52;2.60;;;2.40;;
32964;SDS011;19317;48.226;11.686;2023-05-10T21:15:43;2.90;;;2.40;;
32964;SDS011;19317;48.226;11.686;2023-05-10T21:20:33;3.00;;;2.70;;
32964;SDS011;19317;48.226;11.686;2023-05-10T21:25:24;6.03;;;2.60;;
32964;SDS011;19317;48.226;11.686;2023-05-10T21:30:14;3.00;;;2.43;;
32964;SDS011;19317;48.226;11.686;2023-05-10T21:35:05;3.97;;;2.47;;
32964;SDS011;19317;48.226;11.686;2023-05-10T21:39:56;2.40;;;2.20;;
32964;SDS011;19317;48.226;11.686;2023-05-10T21:44:46;2.63;;;2.33;;
32964;SDS011;19317;48.226;11.686;2023-05-10T21:49:37;3.23;;;2.80;;
32964;SDS011;19317;48.226;11.686;2023-05-10T21:54:27;3.20;;;2.50;;
32964;SDS011;19317;48.226;11.686;2023-05-10T21:59:18;2.80;;;2.20;;
32964;SDS011;19317;48.226;11.686;2023-05-10T22:04:08;2.30;;;2.17;;
32964;SDS011;19317;48.226;11.686;2023-05-10T22:08:58;2.60;;;2.40;;
32964;SDS011;19317;48.226;11.686;2023-05-10T22:13:49;4.30;;;2.50;;
32964;SDS011;19317;48.226;11.686;2023-05-10T22:18:39;2.83;;;2.17;;
32964;SDS011;19317;48.226;11.686;2023-05-10T22:23:30;2.50;;;2.30;;
32964;SDS011;19317;48.226;11.686;2023-05-10T22:28:20;2.77;;;2.23;;
32964;SDS011;19317;48.226;11.686;2023-05-10T22:33:11;2.20;;;2.00;;
32964;SDS011;19317;48.226;11.686;2023-05-10T22:38:01;2.10;;;1.90;;
32964;SDS011;19317;48.226;11.686;2023-05-10T22:42:52;1.97;;;1.87;;
32964;SDS011;19317;48.226;11.686;2023-05-10T22:47:42;2.30;;;2.10;;
32964;SDS011;19317;48.226;11.686;2023-05-10T22:52:33;2.00;;;1.90;;
32964;SDS011;19317;48.226;11.686;2023-05-10T22:57:23;2.40;;;2.00;;
32964;SDS011;19317;48.226;11.686;2023-05-10T23:02:14;2.40;;;2.20;;
32964;SDS011;19317;48.226;11.686;2023-05-10T23:07:05;2.13;;;2.03;;
32964;SDS011;19317;48.226;11.686;2023-05-10T23:11:55;4.33;;;2.07;;
32964;SDS011;19317;48.226;11.686;2023-05-10T23:16:46;2.40;;;2.20;;
32964;SDS011;19317;48.226;11.686;2023-05-10T23:21:36;3.10;;;2.10;;
32964;SDS011;19317;48.226;11.686;2023-05-10T23:26:27;2.37;;;2.10;;
32964;SDS011;19317;48.226;11.686;2023-05-10T23:31:17;2.30;;;2.10;;
32964;SDS011;19317;48.226;11.686;2023-05-10T23:36:07;2.30;;;1.77;;
32964;SDS011;19317;48.226;11.686;2023-05-10T23:40:58;2.57;;;1.97;;
32964;SDS011;19317;48.226;11.686;2023-05-10T23:45:55;2.30;;;2.10;;
32964;SDS011;19317;48.226;11.686;2023-05-10T23:50:46;2.17;;;1.97;;
32964;SDS011;19317;48.226;11.686;2023-05-10T23:55:37;4.77;;;2.20;;
